sensor_id;sensor_type;location;lat;lon;timestamp;pressure;altitude;pressure_sealevel;temperature;humidity
38718;BME280;24468;52.128;9.278;2022-10-16T00:00:36;100211.06;;;14.55;100.00
38718;BME280;24468;52.128;9.278;2022-10-16T00:03:03;100206.50;;;14.55;100.00
38718;BME280;24468;52.128;9.278;2022-10-16T00:05:29;100214.63;;;14.55;100.00
38718;BME280;24468;52.128;9.278;2022-10-16T00:07:55;100222.00;;;14.53;100.00
38718;BME280;24468;52.128;9.278;2022-10-16T00:10:21;100213.94;;;14.52;100.00
38718;BME280;24468;52.128;9.278;2022-10-16T00:12:46;100214.22;;;14.47;100.00
38718;BME280;24468;52.128;9.278;2022-10-16T00:15:12;100217.44;;;14.39;100.00
38718;BME280;24468;52.128;9.278;2022-10-16T00:17:38;100221.63;;;14.31;100.00
38718;BME280;24468;52.128;9.278;2022-10-16T00:20:04;100223.78;;;14.26;100.00
38718;BME280;24468;52.128;9.278;2022-10-16T00:22:30;100218.75;;;14.19;100.00
38718;BME280;24468;52.128;9.278;2022-10-16T00:24:56;100227.75;;;14.20;100.00
38718;BME280;24468;52.128;9.278;2022-10-16T00:27:22;100227.66;;;14.21;100.00
38718;BME280;24468;52.128;9.278;2022-10-16T00:29:51;100224.75;;;14.24;100.00
38718;BME280;24468;52.128;9.278;2022-10-16T00:32:20;100231.63;;;14.30;100.00
38718;BME280;24468;52.128;9.278;2022-10-16T00:34:46;100224.75;;;14.24;100.00
38718;BME280;24468;52.128;9.278;2022-10-16T00:37:13;100234.63;;;14.26;100.00
38718;BME280;24468;52.128;9.278;2022-10-16T00:39:38;100232.91;;;14.24;100.00
38718;BME280;24468;52.128;9.278;2022-10-16T00:42:04;100224.53;;;14.28;100.00
38718;BME280;24468;52.128;9.278;2022-10-16T00:44:53;100233.09;;;14.21;100.00
38718;BME280;24468;52.128;9.278;2022-10-16T00:47:42;100236.00;;;14.18;100.00
38718;BME280;24468;52.128;9.278;2022-10-16T00:50:31;100246.53;;;14.23;100.00
38718;BME280;24468;52.128;9.278;2022-10-16T00:52:58;100228.53;;;14.22;100.00
38718;BME280;24468;52.128;9.278;2022-10-16T00:55:26;100236.38;;;14.27;100.00
38718;BME280;24468;52.128;9.278;2022-10-16T00:57:53;100240.75;;;14.29;100.00
38718;BME280;24468;52.128;9.278;2022-10-16T01:00:22;100239.09;;;14.27;100.00
38718;BME280;24468;52.128;9.278;2022-10-16T01:02:58;100227.19;;;14.29;100.00
38718;BME280;24468;52.128;9.278;2022-10-16T01:05:35;100216.22;;;14.31;100.00
38718;BME280;24468;52.128;9.278;2022-10-16T01:08:22;100224.91;;;14.36;100.00
38718;BME280;24468;52.128;9.278;2022-10-16T01:10:59;100226.66;;;14.37;100.00
38718;BME280;24468;52.128;9.278;2022-10-16T01:13:35;100221.63;;;14.31;100.00
38718;BME280;24468;52.128;9.278;2022-10-16T01:16:28;100231.81;;;14.27;100.00
38718;BME280;24468;52.128;9.278;2022-10-16T01:21:40;100229.41;;;14.22;100.00
38718;BME280;24468;52.128;9.278;2022-10-16T01:27:05;100237.34;;;14.11;100.00
38718;BME280;24468;52.128;9.278;2022-10-16T01:32:38;100243.06;;;14.07;100.00
38718;BME280;24468;52.128;9.278;2022-10-16T01:35:24;100247.44;;;14.09;100.00
38718;BME280;24468;52.128;9.278;2022-10-16T01:38:04;100243.75;;;14.10;100.00
38718;BME280;24468;52.128;9.278;2022-10-16T01:40:35;100256.25;;;14.13;100.00
38718;BME280;24468;52.128;9.278;2022-10-16T01:43:10;100258.47;;;14.06;100.00
38718;BME280;24468;52.128;9.278;2022-10-16T01:45:38;100255.19;;;14.01;100.00
38718;BME280;24468;52.128;9.278;2022-10-16T01:48:06;100253.66;;;13.97;100.00
38718;BME280;24468;52.128;9.278;2022-10-16T01:50:38;100260.41;;;13.90;100.00
38718;BME280;24468;52.128;9.278;2022-10-16T01:53:05;100259.28;;;13.94;100.00
38718;BME280;24468;52.128;9.278;2022-10-16T01:55:37;100253.72;;;13.95;100.00
38718;BME280;24468;52.128;9.278;2022-10-16T01:58:06;100267.59;;;13.91;100.00
38718;BME280;24468;52.128;9.278;2022-10-16T02:00:34;100263.50;;;13.84;100.00
38718;BME280;24468;52.128;9.278;2022-10-16T02:03:02;100270.66;;;13.85;100.00
38718;BME280;24468;52.128;9.278;2022-10-16T02:05:40;100268.94;;;13.84;100.00
38718;BME280;24468;52.128;9.278;2022-10-16T02:08:07;100279.00;;;13.82;100.00
38718;BME280;24468;52.128;9.278;2022-10-16T02:10:35;100286.47;;;13.78;100.00
38718;BME280;24468;52.128;9.278;2022-10-16T02:13:18;100282.22;;;13.74;100.00
38718;BME280;24468;52.128;9.278;2022-10-16T02:15:46;100287.91;;;13.69;100.00
38718;BME280;24468;52.128;9.278;2022-10-16T02:18:12;100285.97;;;13.71;100.00
38718;BME280;24468;52.128;9.278;2022-10-16T02:21:16;100289.84;;;13.67;100.00
38718;BME280;24468;52.128;9.278;2022-10-16T02:23:56;100280.16;;;13.63;100.00
38718;BME280;24468;52.128;9.278;2022-10-16T02:26:42;100275.19;;;13.55;100.00
38718;BME280;24468;52.128;9.278;2022-10-16T02:29:13;100281.47;;;13.56;100.00
38718;BME280;24468;52.128;9.278;2022-10-16T02:31:46;100276.16;;;13.54;100.00
38718;BME280;24468;52.128;9.278;2022-10-16T02:34:15;100285.19;;;13.55;100.00
38718;BME280;24468;52.128;9.278;2022-10-16T02:36:42;100281.47;;;13.56;100.00
38718;BME280;24468;52.128;9.278;2022-10-16T02:39:08;100282.34;;;13.56;100.00
38718;BME280;24468;52.128;9.278;2022-10-16T02:41:35;100281.47;;;13.56;100.00
38718;BME280;24468;52.128;9.278;2022-10-16T02:44:00;100276.06;;;13.56;100.00
38718;BME280;24468;52.128;9.278;2022-10-16T02:46:26;100266.19;;;13.55;100.00
38718;BME280;24468;52.128;9.278;2022-10-16T02:48:52;100269.00;;;13.53;100.00
38718;BME280;24468;52.128;9.278;2022-10-16T02:51:17;100266.75;;;13.46;100.00
38718;BME280;24468;52.128;9.278;2022-10-16T02:53:43;100262.50;;;13.42;100.00
38718;BME280;24468;52.128;9.278;2022-10-16T02:56:08;100258.19;;;13.38;100.00
38718;BME280;24468;52.128;9.278;2022-10-16T02:58:34;100262.75;;;13.37;100.00
38718;BME280;24468;52.128;9.278;2022-10-16T03:00:59;100258.41;;;13.34;100.00
38718;BME280;24468;52.128;9.278;2022-10-16T03:03:25;100260.31;;;13.32;100.00
38718;BME280;24468;52.128;9.278;2022-10-16T03:05:50;100276.69;;;13.31;100.00
38718;BME280;24468;52.128;9.278;2022-10-16T03:08:16;100278.53;;;13.30;100.00
38718;BME280;24468;52.128;9.278;2022-10-16T03:10:41;100275.81;;;13.30;100.00
38718;BME280;24468;52.128;9.278;2022-10-16T03:13:07;100280.59;;;13.25;100.00
38718;BME280;24468;52.128;9.278;2022-10-16T03:15:32;100275.19;;;13.25;100.00
38718;BME280;24468;52.128;9.278;2022-10-16T03:17:58;100275.44;;;13.21;100.00
38718;BME280;24468;52.128;9.278;2022-10-16T03:20:24;100274.59;;;13.20;100.00
38718;BME280;24468;52.128;9.278;2022-10-16T03:22:50;100275.44;;;13.21;100.00
38718;BME280;24468;52.128;9.278;2022-10-16T03:25:16;100269.75;;;13.25;100.00
38718;BME280;24468;52.128;9.278;2022-10-16T03:27:41;100278.84;;;13.24;100.00
38718;BME280;24468;52.128;9.278;2022-10-16T03:30:08;100288.00;;;13.22;100.00
38718;BME280;24468;52.128;9.278;2022-10-16T03:32:34;100289.00;;;13.21;100.00
38718;BME280;24468;52.128;9.278;2022-10-16T03:34:59;100291.00;;;13.17;100.00
38718;BME280;24468;52.128;9.278;2022-10-16T03:37:25;100297.50;;;13.15;100.00
38718;BME280;24468;52.128;9.278;2022-10-16T03:39:50;100298.34;;;13.15;100.00
38718;BME280;24468;52.128;9.278;2022-10-16T03:42:16;100305.50;;;13.16;100.00
38718;BME280;24468;52.128;9.278;2022-10-16T03:44:41;100300.00;;;13.18;100.00
38718;BME280;24468;52.128;9.278;2022-10-16T03:47:07;100299.16;;;13.17;100.00
38718;BME280;24468;52.128;9.278;2022-10-16T03:49:32;100286.53;;;13.16;100.00
38718;BME280;24468;52.128;9.278;2022-10-16T03:51:58;100286.66;;;13.15;100.00
38718;BME280;24468;52.128;9.278;2022-10-16T03:54:23;100274.75;;;13.17;100.00
38718;BME280;24468;52.128;9.278;2022-10-16T03:56:49;100278.41;;;13.16;100.00
38718;BME280;24468;52.128;9.278;2022-10-16T03:59:14;100287.16;;;13.21;100.00
38718;BME280;24468;52.128;9.278;2022-10-16T04:01:40;100292.34;;;13.26;100.00
38718;BME280;24468;52.128;9.278;2022-10-16T04:04:05;100297.56;;;13.29;100.00
38718;BME280;24468;52.128;9.278;2022-10-16T04:06:31;100300.38;;;13.27;100.00
38718;BME280;24468;52.128;9.278;2022-10-16T04:08:56;100307.78;;;13.24;100.00
38718;BME280;24468;52.128;9.278;2022-10-16T04:11:22;100309.19;;;13.15;100.00
38718;BME280;24468;52.128;9.278;2022-10-16T04:13:48;100311.72;;;13.18;100.00
38718;BME280;24468;52.128;9.278;2022-10-16T04:16:13;100314.53;;;13.17;100.00
38718;BME280;24468;52.128;9.278;2022-10-16T04:18:39;100313.47;;;13.19;100.00
38718;BME280;24468;52.128;9.278;2022-10-16T04:21:06;100318.19;;;13.16;100.00
38718;BME280;24468;52.128;9.278;2022-10-16T04:23:32;100315.47;;;13.16;100.00
38718;BME280;24468;52.128;9.278;2022-10-16T04:25:58;100321.25;;;13.09;100.00
38718;BME280;24468;52.128;9.278;2022-10-16T04:28:24;100316.63;;;13.11;100.00
38718;BME280;24468;52.128;9.278;2022-10-16T04:30:49;100301.94;;;13.16;100.00
38718;BME280;24468;52.128;9.278;2022-10-16T04:33:16;100312.50;;;13.20;100.00
38718;BME280;24468;52.128;9.278;2022-10-16T04:35:41;100304.38;;;13.20;100.00
38718;BME280;24468;52.128;9.278;2022-10-16T04:38:07;100306.47;;;13.15;100.00
38718;BME280;24468;52.128;9.278;2022-10-16T04:40:32;100309.69;;;13.22;100.00
38718;BME280;24468;52.128;9.278;2022-10-16T04:42:59;100307.78;;;13.24;100.00
38718;BME280;24468;52.128;9.278;2022-10-16T04:45:25;100306.97;;;13.22;100.00
38718;BME280;24468;52.128;9.278;2022-10-16T04:47:50;100320.44;;;13.23;100.00
38718;BME280;24468;52.128;9.278;2022-10-16T04:50:16;100313.38;;;13.21;100.00
38718;BME280;24468;52.128;9.278;2022-10-16T04:52:41;100320.81;;;13.17;100.00
38718;BME280;24468;52.128;9.278;2022-10-16T04:55:07;100334.81;;;13.09;100.00
38718;BME280;24468;52.128;9.278;2022-10-16T04:57:33;100333.38;;;13.18;100.00
38718;BME280;24468;52.128;9.278;2022-10-16T04:59:59;100335.47;;;13.13;100.00
38718;BME280;24468;52.128;9.278;2022-10-16T05:02:24;100336.56;;;13.26;100.00
38718;BME280;24468;52.128;9.278;2022-10-16T05:04:51;100346.06;;;13.33;100.00
38718;BME280;24468;52.128;9.278;2022-10-16T05:07:17;100328.66;;;13.38;100.00
38718;BME280;24468;52.128;9.278;2022-10-16T05:09:42;100343.00;;;13.40;100.00
38718;BME280;24468;52.128;9.278;2022-10-16T05:12:08;100332.75;;;13.45;100.00
38718;BME280;24468;52.128;9.278;2022-10-16T05:14:33;100342.31;;;13.36;100.00
38718;BME280;24468;52.128;9.278;2022-10-16T05:17:00;100344.84;;;13.39;100.00
38718;BME280;24468;52.128;9.278;2022-10-16T05:19:26;100349.38;;;13.39;100.00
38718;BME280;24468;52.128;9.278;2022-10-16T05:21:51;100347.09;;;13.47;100.00
38718;BME280;24468;52.128;9.278;2022-10-16T05:24:17;100354.94;;;13.51;100.00
38718;BME280;24468;52.128;9.278;2022-10-16T05:26:42;100354.25;;;13.48;100.00
38718;BME280;24468;52.128;9.278;2022-10-16T05:29:09;100360.66;;;13.47;100.00
38718;BME280;24468;52.128;9.278;2022-10-16T05:31:34;100348.41;;;13.40;100.00
38718;BME280;24468;52.128;9.278;2022-10-16T05:34:00;100362.94;;;13.39;100.00
38718;BME280;24468;52.128;9.278;2022-10-16T05:36:26;100351.81;;;13.43;100.00
38718;BME280;24468;52.128;9.278;2022-10-16T05:38:52;100359.84;;;13.45;100.00
38718;BME280;24468;52.128;9.278;2022-10-16T05:41:18;100342.19;;;13.38;100.00
38718;BME280;24468;52.128;9.278;2022-10-16T05:43:47;100341.09;;;13.26;100.00
38718;BME280;24468;52.128;9.278;2022-10-16T05:46:13;100350.09;;;13.26;100.00
38718;BME280;24468;52.128;9.278;2022-10-16T05:48:39;100358.75;;;13.33;100.00
38718;BME280;24468;52.128;9.278;2022-10-16T05:51:07;100367.63;;;13.35;100.00
38718;BME280;24468;52.128;9.278;2022-10-16T05:53:36;100363.81;;;13.39;100.00
38718;BME280;24468;52.128;9.278;2022-10-16T05:56:03;100359.31;;;13.38;100.00
38718;BME280;24468;52.128;9.278;2022-10-16T05:58:32;100362.03;;;13.38;100.00
38718;BME280;24468;52.128;9.278;2022-10-16T06:01:10;100364.13;;;13.49;100.00
38718;BME280;24468;52.128;9.278;2022-10-16T06:03:37;100359.13;;;13.57;100.00
38718;BME280;24468;52.128;9.278;2022-10-16T06:06:15;100368.81;;;13.61;100.00
38718;BME280;24468;52.128;9.278;2022-10-16T06:08:43;100386.63;;;13.65;100.00
38718;BME280;24468;52.128;9.278;2022-10-16T06:11:12;100399.06;;;13.69;100.00
38718;BME280;24468;52.128;9.278;2022-10-16T06:13:38;100405.94;;;13.75;100.00
38718;BME280;24468;52.128;9.278;2022-10-16T06:16:07;100400.84;;;13.85;100.00
38718;BME280;24468;52.128;9.278;2022-10-16T06:18:33;100396.78;;;13.92;100.00
38718;BME280;24468;52.128;9.278;2022-10-16T06:20:59;100401.16;;;13.94;100.00
38718;BME280;24468;52.128;9.278;2022-10-16T06:23:25;100402.81;;;13.97;100.00
38718;BME280;24468;52.128;9.278;2022-10-16T06:25:51;100395.47;;;13.99;100.00
38718;BME280;24468;52.128;9.278;2022-10-16T06:28:17;100409.97;;;13.98;100.00
38718;BME280;24468;52.128;9.278;2022-10-16T06:30:42;100416.66;;;13.92;100.00
38718;BME280;24468;52.128;9.278;2022-10-16T06:33:11;100413.94;;;13.92;100.00
38718;BME280;24468;52.128;9.278;2022-10-16T06:35:37;100413.84;;;13.94;100.00
38718;BME280;24468;52.128;9.278;2022-10-16T06:38:03;100417.25;;;13.97;100.00
38718;BME280;24468;52.128;9.278;2022-10-16T06:40:28;100418.91;;;14.00;100.00
38718;BME280;24468;52.128;9.278;2022-10-16T06:42:57;100428.63;;;14.04;100.00
38718;BME280;24468;52.128;9.278;2022-10-16T06:45:22;100429.19;;;14.09;100.00
38718;BME280;24468;52.128;9.278;2022-10-16T06:47:48;100421.63;;;14.14;100.00
38718;BME280;24468;52.128;9.278;2022-10-16T06:50:14;100430.00;;;14.26;100.00
38718;BME280;24468;52.128;9.278;2022-10-16T06:52:39;100420.53;;;14.33;100.00
38718;BME280;24468;52.128;9.278;2022-10-16T06:55:05;100415.56;;;14.39;100.00
38718;BME280;24468;52.128;9.278;2022-10-16T06:57:31;100432.38;;;14.46;100.00
38718;BME280;24468;52.128;9.278;2022-10-16T06:59:56;100429.34;;;14.51;100.00
38718;BME280;24468;52.128;9.278;2022-10-16T07:02:22;100444.03;;;14.62;100.00
38718;BME280;24468;52.128;9.278;2022-10-16T07:04:47;100448.50;;;14.63;100.00
38718;BME280;24468;52.128;9.278;2022-10-16T07:07:13;100443.06;;;14.63;100.00
38718;BME280;24468;52.128;9.278;2022-10-16T07:09:40;100444.44;;;14.71;100.00
38718;BME280;24468;52.128;9.278;2022-10-16T07:12:05;100453.16;;;14.76;100.00
38718;BME280;24468;52.128;9.278;2022-10-16T07:14:31;100443.25;;;14.89;100.00
38718;BME280;24468;52.128;9.278;2022-10-16T07:16:56;100450.03;;;14.96;100.00
38718;BME280;24468;52.128;9.278;2022-10-16T07:19:22;100458.88;;;14.85;100.00
38718;BME280;24468;52.128;9.278;2022-10-16T07:21:47;100462.47;;;15.00;100.00
38718;BME280;24468;52.128;9.278;2022-10-16T07:24:15;100461.03;;;14.95;100.00
38718;BME280;24468;52.128;9.278;2022-10-16T07:26:43;100473.03;;;15.05;100.00
38718;BME280;24468;52.128;9.278;2022-10-16T07:29:19;100470.81;;;15.11;100.00
38718;BME280;24468;52.128;9.278;2022-10-16T07:31:46;100470.78;;;15.26;100.00
38718;BME280;24468;52.128;9.278;2022-10-16T07:34:13;100480.66;;;15.27;100.00
38718;BME280;24468;52.128;9.278;2022-10-16T07:36:39;100483.66;;;15.37;100.00
38718;BME280;24468;52.128;9.278;2022-10-16T07:39:05;100490.63;;;15.41;100.00
38718;BME280;24468;52.128;9.278;2022-10-16T07:41:31;100497.78;;;15.56;100.00
38718;BME280;24468;52.128;9.278;2022-10-16T07:43:58;100493.94;;;15.46;100.00
38718;BME280;24468;52.128;9.278;2022-10-16T07:46:26;100500.44;;;15.43;100.00
38718;BME280;24468;52.128;9.278;2022-10-16T07:48:52;100502.16;;;15.59;100.00
38718;BME280;24468;52.128;9.278;2022-10-16T07:51:21;100507.59;;;15.59;100.00
38718;BME280;24468;52.128;9.278;2022-10-16T07:53:47;100508.25;;;15.62;100.00
38718;BME280;24468;52.128;9.278;2022-10-16T07:56:14;100510.69;;;15.67;100.00
38718;BME280;24468;52.128;9.278;2022-10-16T07:58:40;100514.34;;;15.66;100.00
38718;BME280;24468;52.128;9.278;2022-10-16T08:01:08;100513.50;;;15.65;100.00
38718;BME280;24468;52.128;9.278;2022-10-16T08:03:34;100522.25;;;15.70;100.00
38718;BME280;24468;52.128;9.278;2022-10-16T08:06:01;100525.63;;;15.74;100.00
38718;BME280;24468;52.128;9.278;2022-10-16T08:08:27;100532.06;;;15.59;100.00
38718;BME280;24468;52.128;9.278;2022-10-16T08:10:52;100542.94;;;15.59;100.00
38718;BME280;24468;52.128;9.278;2022-10-16T08:13:18;100543.16;;;15.55;100.00
38718;BME280;24468;52.128;9.278;2022-10-16T08:15:45;100547.03;;;15.51;100.00
38718;BME280;24468;52.128;9.278;2022-10-16T08:18:13;100541.66;;;15.64;100.00
38718;BME280;24468;52.128;9.278;2022-10-16T08:20:41;100543.63;;;15.62;100.00
38718;BME280;24468;52.128;9.278;2022-10-16T08:23:07;100543.31;;;15.67;100.00
38718;BME280;24468;52.128;9.278;2022-10-16T08:25:36;100539.25;;;15.60;100.00
38718;BME280;24468;52.128;9.278;2022-10-16T08:28:04;100540.69;;;15.65;100.00
38718;BME280;24468;52.128;9.278;2022-10-16T08:30:31;100541.88;;;15.61;100.00
38718;BME280;24468;52.128;9.278;2022-10-16T08:32:56;100541.38;;;15.54;100.00
38718;BME280;24468;52.128;9.278;2022-10-16T08:35:23;100554.03;;;15.55;100.00
38718;BME280;24468;52.128;9.278;2022-10-16T08:37:49;100557.63;;;15.56;100.00
38718;BME280;24468;52.128;9.278;2022-10-16T08:40:25;100555.59;;;15.45;100.00
38718;BME280;24468;52.128;9.278;2022-10-16T08:46:24;100553.06;;;15.98;100.00
38718;BME280;24468;52.128;9.278;2022-10-16T08:48:57;100554.50;;;16.04;100.00
38718;BME280;24468;52.128;9.278;2022-10-16T08:51:32;100564.16;;;16.22;100.00
38718;BME280;24468;52.128;9.278;2022-10-16T08:54:03;100573.25;;;16.08;100.00
38718;BME280;24468;52.128;9.278;2022-10-16T08:56:29;100569.41;;;16.25;100.00
38718;BME280;24468;52.128;9.278;2022-10-16T08:58:58;100581.00;;;16.41;100.00
38718;BME280;24468;52.128;9.278;2022-10-16T09:01:44;100582.06;;;16.39;100.00
38718;BME280;24468;52.128;9.278;2022-10-16T09:13:21;100605.88;;;17.02;100.00
38718;BME280;24468;52.128;9.278;2022-10-16T09:16:13;100602.50;;;17.11;100.00
38718;BME280;24468;52.128;9.278;2022-10-16T09:21:38;100615.50;;;17.33;100.00
38718;BME280;24468;52.128;9.278;2022-10-16T09:24:17;100627.38;;;17.20;100.00
38718;BME280;24468;52.128;9.278;2022-10-16T09:26:44;100621.84;;;17.71;100.00
38718;BME280;24468;52.128;9.278;2022-10-16T09:29:19;100624.72;;;17.44;100.00
38718;BME280;24468;52.128;9.278;2022-10-16T09:31:50;100632.38;;;17.39;100.00
38718;BME280;24468;52.128;9.278;2022-10-16T09:34:36;100625.19;;;17.38;100.00
38718;BME280;24468;52.128;9.278;2022-10-16T09:37:09;100622.91;;;17.44;100.00
38718;BME280;24468;52.128;9.278;2022-10-16T09:39:52;100619.91;;;17.60;100.00
38718;BME280;24468;52.128;9.278;2022-10-16T09:42:28;100625.81;;;17.80;100.00
38718;BME280;24468;52.128;9.278;2022-10-16T09:44:56;100629.06;;;17.85;100.00
38718;BME280;24468;52.128;9.278;2022-10-16T09:47:30;100625.38;;;17.86;100.00
38718;BME280;24468;52.128;9.278;2022-10-16T09:50:00;100625.69;;;17.94;100.00
38718;BME280;24468;52.128;9.278;2022-10-16T09:52:29;100620.34;;;17.67;100.00
38718;BME280;24468;52.128;9.278;2022-10-16T09:55:12;100632.91;;;17.69;100.00
38718;BME280;24468;52.128;9.278;2022-10-16T09:57:52;100635.41;;;17.60;100.00
38718;BME280;24468;52.128;9.278;2022-10-16T10:00:19;100643.06;;;17.80;100.00
38718;BME280;24468;52.128;9.278;2022-10-16T10:02:45;100639.38;;;17.55;100.00
38718;BME280;24468;52.128;9.278;2022-10-16T10:05:23;100640.19;;;17.69;100.00
38718;BME280;24468;52.128;9.278;2022-10-16T10:08:01;100634.25;;;18.13;100.00
38718;BME280;24468;52.128;9.278;2022-10-16T10:10:41;100630.38;;;17.92;100.00
38718;BME280;24468;52.128;9.278;2022-10-16T10:13:22;100647.63;;;17.92;100.00
38718;BME280;24468;52.128;9.278;2022-10-16T10:15:50;100630.28;;;18.17;100.00
38718;BME280;24468;52.128;9.278;2022-10-16T10:18:18;100638.84;;;18.37;100.00
38718;BME280;24468;52.128;9.278;2022-10-16T10:20:45;100634.91;;;18.65;100.00
38718;BME280;24468;52.128;9.278;2022-10-16T10:23:29;100637.06;;;18.49;100.00
38718;BME280;24468;52.128;9.278;2022-10-16T10:26:18;100642.19;;;18.64;100.00
38718;BME280;24468;52.128;9.278;2022-10-16T10:29:16;100650.75;;;18.84;100.00
38718;BME280;24468;52.128;9.278;2022-10-16T10:43:44;100642.16;;;18.53;100.00
38718;BME280;24468;52.128;9.278;2022-10-16T10:46:32;100662.56;;;18.36;100.00
38718;BME280;24468;52.128;9.278;2022-10-16T10:52:13;100659.59;;;18.39;100.00
38718;BME280;24468;52.128;9.278;2022-10-16T10:54:57;100660.22;;;18.19;100.00
38718;BME280;24468;52.128;9.278;2022-10-16T11:01:14;100655.56;;;17.95;100.00
38718;BME280;24468;52.128;9.278;2022-10-16T11:06:59;100665.28;;;17.74;100.00
38718;BME280;24468;52.128;9.278;2022-10-16T11:09:41;100665.59;;;18.08;100.00
38718;BME280;24468;52.128;9.278;2022-10-16T11:12:18;100660.91;;;18.34;100.00
38718;BME280;24468;52.128;9.278;2022-10-16T11:15:20;100662.97;;;18.91;98.67
38718;BME280;24468;52.128;9.278;2022-10-16T11:17:55;100663.19;;;19.23;99.51
38718;BME280;24468;52.128;9.278;2022-10-16T11:20:32;100660.22;;;18.67;97.27
38718;BME280;24468;52.128;9.278;2022-10-16T11:23:14;100657.22;;;18.83;94.61
38718;BME280;24468;52.128;9.278;2022-10-16T11:25:41;100662.53;;;19.08;95.26
38718;BME280;24468;52.128;9.278;2022-10-16T11:28:37;100652.78;;;18.69;93.82
38718;BME280;24468;52.128;9.278;2022-10-16T11:34:00;100665.09;;;18.87;96.86
38718;BME280;24468;52.128;9.278;2022-10-16T11:36:43;100677.47;;;19.16;96.84
38718;BME280;24468;52.128;9.278;2022-10-16T11:42:10;100666.50;;;19.04;96.78
38718;BME280;24468;52.128;9.278;2022-10-16T11:50:48;100677.31;;;19.64;89.53
38718;BME280;24468;52.128;9.278;2022-10-16T11:53:51;100688.38;;;19.51;87.69
38718;BME280;24468;52.128;9.278;2022-10-16T11:56:20;100673.84;;;19.62;88.03
38718;BME280;24468;52.128;9.278;2022-10-16T11:59:13;100669.88;;;20.11;85.72
38718;BME280;24468;52.128;9.278;2022-10-16T12:01:44;100668.59;;;20.15;85.78
38718;BME280;24468;52.128;9.278;2022-10-16T12:04:26;100675.34;;;19.66;84.29
38718;BME280;24468;52.128;9.278;2022-10-16T12:07:09;100669.00;;;19.88;84.26
38718;BME280;24468;52.128;9.278;2022-10-16T12:09:39;100664.50;;;20.20;84.02
38718;BME280;24468;52.128;9.278;2022-10-16T12:15:33;100672.91;;;20.40;82.58
38718;BME280;24468;52.128;9.278;2022-10-16T12:17:59;100679.06;;;20.21;78.19
38718;BME280;24468;52.128;9.278;2022-10-16T12:20:29;100676.78;;;20.37;80.61
38718;BME280;24468;52.128;9.278;2022-10-16T12:23:04;100680.25;;;20.62;79.97
38718;BME280;24468;52.128;9.278;2022-10-16T12:25:33;100676.25;;;20.66;78.68
38718;BME280;24468;52.128;9.278;2022-10-16T12:28:20;100669.44;;;20.49;78.06
38718;BME280;24468;52.128;9.278;2022-10-16T12:31:13;100694.53;;;21.09;79.44
38718;BME280;24468;52.128;9.278;2022-10-16T12:33:51;100681.69;;;21.09;77.28
38718;BME280;24468;52.128;9.278;2022-10-16T12:36:33;100690.63;;;20.91;72.38
38718;BME280;24468;52.128;9.278;2022-10-16T12:39:00;100682.81;;;21.28;73.20
38718;BME280;24468;52.128;9.278;2022-10-16T12:41:33;100697.00;;;21.33;75.48
38718;BME280;24468;52.128;9.278;2022-10-16T12:44:00;100696.53;;;21.07;73.21
38718;BME280;24468;52.128;9.278;2022-10-16T12:46:37;100706.47;;;20.76;73.77
38718;BME280;24468;52.128;9.278;2022-10-16T12:49:30;100717.72;;;20.73;70.91
38718;BME280;24468;52.128;9.278;2022-10-16T12:51:56;100715.34;;;20.79;74.14
38718;BME280;24468;52.128;9.278;2022-10-16T12:54:30;100713.03;;;20.63;74.09
38718;BME280;24468;52.128;9.278;2022-10-16T12:58:00;100716.38;;;20.44;74.35
38718;BME280;24468;52.128;9.278;2022-10-16T13:00:50;100714.81;;;20.85;72.85
38718;BME280;24468;52.128;9.278;2022-10-16T13:07:15;100723.13;;;20.29;75.11
38718;BME280;24468;52.128;9.278;2022-10-16T13:12:37;100718.94;;;20.03;76.74
38718;BME280;24468;52.128;9.278;2022-10-16T13:26:51;100749.06;;;19.09;87.48
38718;BME280;24468;52.128;9.278;2022-10-16T13:29:19;100748.97;;;19.22;87.41
38718;BME280;24468;52.128;9.278;2022-10-16T13:31:45;100758.00;;;19.47;85.11
38718;BME280;24468;52.128;9.278;2022-10-16T13:34:19;100748.94;;;19.58;85.41
38718;BME280;24468;52.128;9.278;2022-10-16T13:36:51;100748.66;;;20.07;82.26
38718;BME280;24468;52.128;9.278;2022-10-16T13:39:35;100758.25;;;20.13;82.54
38718;BME280;24468;52.128;9.278;2022-10-16T13:42:09;100760.38;;;20.20;79.19
38718;BME280;24468;52.128;9.278;2022-10-16T13:44:50;100753.53;;;20.15;78.07
38718;BME280;24468;52.128;9.278;2022-10-16T13:47:21;100762.13;;;20.33;76.58
38718;BME280;24468;52.128;9.278;2022-10-16T13:50:01;100754.38;;;20.15;76.60
38718;BME280;24468;52.128;9.278;2022-10-16T13:52:27;100767.22;;;20.26;75.46
38718;BME280;24468;52.128;9.278;2022-10-16T13:54:53;100755.91;;;20.31;75.95
38718;BME280;24468;52.128;9.278;2022-10-16T13:57:24;100761.50;;;20.63;74.78
38718;BME280;24468;52.128;9.278;2022-10-16T13:59:50;100762.84;;;20.69;71.45
38718;BME280;24468;52.128;9.278;2022-10-16T14:02:33;100764.72;;;20.68;73.73
38718;BME280;24468;52.128;9.278;2022-10-16T14:05:02;100762.16;;;21.20;73.46
38718;BME280;24468;52.128;9.278;2022-10-16T14:07:32;100771.03;;;21.23;71.52
38718;BME280;24468;52.128;9.278;2022-10-16T14:10:05;100776.13;;;20.96;69.63
38718;BME280;24468;52.128;9.278;2022-10-16T14:12:32;100778.13;;;21.26;70.30
38718;BME280;24468;52.128;9.278;2022-10-16T14:14:58;100770.69;;;21.70;70.06
38718;BME280;24468;52.128;9.278;2022-10-16T14:17:31;100780.03;;;21.14;71.04
38718;BME280;24468;52.128;9.278;2022-10-16T14:20:00;100781.59;;;21.28;70.55